Time;durP1;ratioP1;P1;durP2;ratioP2;P2;SDS_P1;SDS_P2;PMS_P1;PMS_P2;Temp;Humidity;BMP_temperature;BMP_pressure;BME280_temperature;BME280_humidity;BME280_pressure;Samples;Min_cycle;Max_cycle;Signal;HPM_P1;HPM_P2
2022/03/04 00:04:10;;;;;;;1.05;0.77;;;;;;;;;;21000844;28;20067;-61
2022/03/04 00:14:12;;;;;;;1.38;0.75;;;;;;;;;;20998684;28;20049;-62
2022/03/04 00:24:16;;;;;;;0.70;0.40;;;;;;;;;;20998325;28;20049;-63
2022/03/04 00:34:18;;;;;;;0.88;0.40;;;;;;;;;;20996632;28;20040;-62
2022/03/04 00:44:20;;;;;;;0.45;0.40;;;;;;;;;;20997254;28;20049;-62
2022/03/04 00:54:22;;;;;;;1.15;0.50;;;;;;;;;;20997036;28;20086;-62
2022/03/04 01:04:24;;;;;;;0.70;0.40;;;;;;;;;;20995374;28;20052;-63
2022/03/04 01:14:26;;;;;;;0.35;0.30;;;;;;;;;;20995059;28;20574;-62
2022/03/04 01:24:29;;;;;;;0.90;0.47;;;;;;;;;;20994753;28;20139;-62
2022/03/04 01:34:31;;;;;;;0.30;0.30;;;;;;;;;;20994206;28;20164;-63
2022/03/04 01:44:34;;;;;;;0.65;0.30;;;;;;;;;;21006023;28;20083;-62
2022/03/04 01:54:36;;;;;;;0.63;0.32;;;;;;;;;;21009696;28;20048;-62
2022/03/04 02:04:38;;;;;;;0.47;0.40;;;;;;;;;;21008994;28;20484;-63
2022/03/04 02:14:40;;;;;;;0.30;0.30;;;;;;;;;;21007860;28;20110;-62
2022/03/04 02:24:43;;;;;;;0.90;0.40;;;;;;;;;;21007539;28;20052;-61
2022/03/04 02:34:46;;;;;;;1.70;0.38;;;;;;;;;;21006451;28;20118;-61
2022/03/04 02:44:52;;;;;;;1.85;0.40;;;;;;;;;;21006091;28;20056;-62
2022/03/04 02:54:58;;;;;;;;;;;;;;;;;;21004912;28;20052;-62
2022/03/04 03:05:20;;;;;;;1.52;0.40;;;;;;;;;;21004660;28;19921;-61
2022/03/04 03:15:41;;;;;;;0.30;0.30;;;;;;;;;;21002877;28;20449;-60
2022/03/04 03:26:03;;;;;;;0.50;0.40;;;;;;;;;;21004219;28;20048;-61
2022/03/04 03:36:24;;;;;;;0.63;0.40;;;;;;;;;;21001882;28;20119;-61
2022/03/04 03:46:45;;;;;;;1.35;0.50;;;;;;;;;;21001563;28;20076;-61
2022/03/04 03:56:57;;;;;;;0.95;0.57;;;;;;;;;;21000887;28;20477;-62
2022/03/04 04:07:06;;;;;;;2.50;0.60;;;;;;;;;;20998560;28;20053;-62
2022/03/04 04:17:22;;;;;;;1.92;0.57;;;;;;;;;;20998548;28;20067;-62
2022/03/04 04:27:43;;;;;;;1.75;0.55;;;;;;;;;;20997467;28;20052;-61
2022/03/04 04:38:05;;;;;;;1.35;0.50;;;;;;;;;;20997577;28;20512;-60
2022/03/04 04:48:26;;;;;;;1.38;0.80;;;;;;;;;;20997634;28;20056;-61
2022/03/04 04:58:36;;;;;;;2.15;0.80;;;;;;;;;;20996345;28;20111;-62
2022/03/04 05:08:50;;;;;;;2.05;0.75;;;;;;;;;;20995257;28;20134;-62
2022/03/04 05:19:05;;;;;;;1.98;0.60;;;;;;;;;;20993763;28;20057;-61
2022/03/04 05:29:26;;;;;;;3.00;0.70;;;;;;;;;;20994820;28;20076;-62
2022/03/04 05:39:35;;;;;;;1.85;0.70;;;;;;;;;;20994793;28;20415;-62
2022/03/04 05:49:43;;;;;;;3.38;0.70;;;;;;;;;;20994648;28;20045;-62
2022/03/04 05:59:50;;;;;;;1.00;0.55;;;;;;;;;;20993894;28;20059;-63
2022/03/04 06:09:56;;;;;;;1.85;0.63;;;;;;;;;;20992230;28;20060;-62
2022/03/04 06:20:00;;;;;;;2.87;0.67;;;;;;;;;;20993261;28;20094;-62
2022/03/04 06:30:05;;;;;;;2.75;0.70;;;;;;;;;;21000465;28;20503;-63
2022/03/04 06:40:09;;;;;;;4.00;0.80;;;;;;;;;;21006163;28;20064;-62
2022/03/04 06:50:11;;;;;;;1.52;0.80;;;;;;;;;;21005812;28;20094;-62
2022/03/04 07:00:13;;;;;;;2.13;0.70;;;;;;;;;;21005653;28;20059;-61
2022/03/04 07:10:29;;;;;;;3.75;0.90;;;;;;;;;;21004825;28;20488;-62
2022/03/04 07:20:32;;;;;;;2.22;1.00;;;;;;;;;;21003301;28;20048;-63
2022/03/04 07:30:35;;;;;;;1.77;0.80;;;;;;;;;;21001696;28;20139;-62
2022/03/04 07:40:38;;;;;;;6.95;1.00;;;;;;;;;;21002017;28;20049;-63
2022/03/04 07:50:40;;;;;;;3.72;1.08;;;;;;;;;;21001333;28;20045;-62
2022/03/04 08:00:42;;;;;;;3.35;1.00;;;;;;;;;;20999727;28;20129;-63
2022/03/04 08:10:45;;;;;;;2.13;0.73;;;;;;;;;;20997912;28;20076;-62
2022/03/04 08:20:48;;;;;;;2.47;1.00;;;;;;;;;;20998447;28;20507;-64
2022/03/04 08:30:50;;;;;;;2.45;1.05;;;;;;;;;;20997520;28;20048;-62
2022/03/04 08:40:52;;;;;;;3.33;1.17;;;;;;;;;;20996823;28;20131;-63
2022/03/04 08:50:54;;;;;;;3.00;1.08;;;;;;;;;;20996109;28;20129;-63
2022/03/04 09:00:57;;;;;;;2.55;1.40;;;;;;;;;;20995761;28;20079;-63
2022/03/04 09:11:00;;;;;;;2.08;0.88;;;;;;;;;;20995085;28;20090;-62
2022/03/04 09:21:03;;;;;;;3.55;0.90;;;;;;;;;;20995319;28;20075;-64
2022/03/04 09:31:06;;;;;;;6.20;1.33;;;;;;;;;;20994651;28;20051;-62
2022/03/04 09:41:08;;;;;;;1.65;0.90;;;;;;;;;;20994692;28;20480;-64
2022/03/04 09:51:11;;;;;;;2.70;0.93;;;;;;;;;;20994449;28;20041;-62
2022/03/04 10:01:14;;;;;;;2.63;0.80;;;;;;;;;;20996352;28;20070;-55
2022/03/04 10:11:25;;;;;;;2.75;1.33;;;;;;;;;;21008830;28;20206;-70
2022/03/04 10:21:43;;;;;;;4.70;1.23;;;;;;;;;;21009501;28;20052;-65
2022/03/04 10:32:06;;;;;;;3.70;1.08;;;;;;;;;;21006757;28;20186;-60
2022/03/04 10:42:08;;;;;;;3.20;0.90;;;;;;;;;;20961393;28;20053;-69
2022/03/04 10:52:11;;;;;;;2.47;0.88;;;;;;;;;;20926097;28;20508;-69
2022/03/04 11:02:13;;;;;;;6.70;0.95;;;;;;;;;;20933230;28;20048;-60
2022/03/04 11:12:15;;;;;;;2.83;0.70;;;;;;;;;;20973083;28;20113;-61
2022/03/04 11:22:18;;;;;;;1.67;0.80;;;;;;;;;;20970703;28;20047;-58
2022/03/04 11:32:28;;;;;;;1.40;0.60;;;;;;;;;;20950024;28;20060;-61
2022/03/04 11:42:42;;;;;;;2.22;0.82;;;;;;;;;;20974173;28;20477;-62
2022/03/04 11:52:44;;;;;;;2.33;0.80;;;;;;;;;;20977441;28;20041;-57
2022/03/04 12:02:48;;;;;;;2.47;0.90;;;;;;;;;;20965607;28;20468;-59
2022/03/04 12:13:13;;;;;;;1.17;0.70;;;;;;;;;;20939444;28;20052;-59
2022/03/04 12:23:18;;;;;;;1.85;0.70;;;;;;;;;;20660589;28;20062;-60
2022/03/04 12:33:21;;;;;;;6.00;0.77;;;;;;;;;;20660712;28;20046;-61
2022/03/04 12:43:23;;;;;;;1.15;0.65;;;;;;;;;;20660336;28;20447;-57
2022/03/04 12:53:27;;;;;;;2.42;1.00;;;;;;;;;;20710212;28;20053;-60
2022/03/04 13:03:32;;;;;;;7.80;1.20;;;;;;;;;;20912907;28;20057;-58
2022/03/04 13:13:45;;;;;;;1.27;0.52;;;;;;;;;;20912787;28;20076;-61
2022/03/04 13:23:51;;;;;;;0.98;0.60;;;;;;;;;;20912157;28;20056;-61
2022/03/04 13:34:00;;;;;;;0.90;0.60;;;;;;;;;;20911304;28;20072;-61
2022/03/04 13:44:13;;;;;;;2.00;0.85;;;;;;;;;;20928203;28;20052;-60
2022/03/04 13:54:15;;;;;;;2.40;0.80;;;;;;;;;;20926889;28;20045;-62
2022/03/04 14:04:20;;;;;;;2.17;0.70;;;;;;;;;;20926509;28;20053;-63
2022/03/04 14:14:23;;;;;;;2.90;0.80;;;;;;;;;;20926492;28;20053;-62
2022/03/04 14:24:26;;;;;;;2.97;1.40;;;;;;;;;;20924838;28;20092;-61
2022/03/04 14:34:30;;;;;;;6.43;0.90;;;;;;;;;;20924181;28;20087;-63
2022/03/04 14:44:34;;;;;;;2.90;0.90;;;;;;;;;;20922948;28;20057;-61
2022/03/04 14:54:36;;;;;;;2.17;0.97;;;;;;;;;;20921603;28;20053;-61
2022/03/04 15:04:39;;;;;;;1.10;0.63;;;;;;;;;;20935529;28;20052;-59
2022/03/04 15:24:21;;;;;;;2.58;1.08;;;;;;;;;;20958467;27;20386;-72
2022/03/04 15:34:23;;;;;;;1.80;0.80;;;;;;;;;;20940849;28;20040;-60
2022/03/04 15:44:26;;;;;;;3.13;1.00;;;;;;;;;;20983702;28;20535;-59
2022/03/04 15:54:28;;;;;;;2.08;1.00;;;;;;;;;;20981707;28;20136;-58
2022/03/04 16:04:30;;;;;;;3.58;1.98;;;;;;;;;;20981353;28;20084;-58
2022/03/04 16:14:32;;;;;;;2.25;1.10;;;;;;;;;;20980821;28;20057;-59
2022/03/04 16:24:35;;;;;;;1.42;0.90;;;;;;;;;;20978693;28;20143;-59
2022/03/04 16:34:38;;;;;;;1.52;0.70;;;;;;;;;;20928916;28;20044;-63
2022/03/04 16:44:40;;;;;;;2.30;0.80;;;;;;;;;;20922331;28;20465;-60
2022/03/04 16:54:42;;;;;;;2.92;0.80;;;;;;;;;;20920650;28;20049;-57
2022/03/04 17:04:45;;;;;;;2.33;0.80;;;;;;;;;;20921070;28;20045;-59
2022/03/04 17:14:47;;;;;;;1.20;0.70;;;;;;;;;;20920591;28;20060;-59
2022/03/04 17:24:49;;;;;;;3.75;1.30;;;;;;;;;;20919333;28;20253;-60
2022/03/04 17:34:51;;;;;;;3.15;1.40;;;;;;;;;;20918725;28;20061;-57
2022/03/04 17:44:54;;;;;;;1.55;0.95;;;;;;;;;;20916503;28;20139;-56
2022/03/04 17:54:56;;;;;;;2.33;0.80;;;;;;;;;;20917127;28;20490;-55
2022/03/04 18:04:58;;;;;;;1.63;0.70;;;;;;;;;;20916297;28;20078;-54
2022/03/04 18:15:00;;;;;;;2.28;0.95;;;;;;;;;;20914619;28;20057;-59
2022/03/04 18:25:03;;;;;;;2.63;0.80;;;;;;;;;;20914393;28;20119;-56
2022/03/04 18:35:05;;;;;;;0.90;0.60;;;;;;;;;;20927336;28;20053;-59
2022/03/04 18:55:29;;;;;;;1.52;0.60;;;;;;;;;;20911955;28;20045;-56
2022/03/04 19:05:31;;;;;;;1.75;0.90;;;;;;;;;;20911988;28;20049;-56
2022/03/04 19:15:33;;;;;;;2.55;0.80;;;;;;;;;;20911204;28;20501;-55
2022/03/04 19:25:36;;;;;;;0.98;0.70;;;;;;;;;;20911910;28;20053;-55
2022/03/04 19:35:38;;;;;;;4.30;1.60;;;;;;;;;;20910279;28;20052;-55
2022/03/04 19:45:40;;;;;;;3.40;2.00;;;;;;;;;;20908852;28;20045;-63
2022/03/04 19:55:43;;;;;;;5.07;2.42;;;;;;;;;;20909949;28;20063;-60
2022/03/04 20:05:45;;;;;;;3.83;1.40;;;;;;;;;;20915410;28;20044;-56
2022/03/04 20:15:47;;;;;;;2.88;1.15;;;;;;;;;;20925493;28;20061;-56
2022/03/04 20:25:49;;;;;;;2.45;1.50;;;;;;;;;;20922788;28;20076;-56
2022/03/04 20:35:51;;;;;;;4.18;1.90;;;;;;;;;;20922408;28;20053;-57
2022/03/04 20:45:54;;;;;;;3.40;1.15;;;;;;;;;;20920961;28;20084;-56
2022/03/04 20:55:56;;;;;;;2.45;1.30;;;;;;;;;;20921551;28;20060;-57
2022/03/04 21:05:59;;;;;;;2.55;1.63;;;;;;;;;;20921176;28;20045;-57
2022/03/04 21:16:01;;;;;;;3.38;1.65;;;;;;;;;;20919681;28;20152;-56
2022/03/04 21:26:03;;;;;;;2.20;1.17;;;;;;;;;;20919878;28;20045;-57
2022/03/04 21:36:05;;;;;;;1.20;0.82;;;;;;;;;;20918257;28;20052;-58
2022/03/04 21:46:08;;;;;;;1.48;0.90;;;;;;;;;;20917575;28;20049;-58
2022/03/04 21:56:11;;;;;;;0.93;0.60;;;;;;;;;;20917657;28;20049;-61
2022/03/04 22:06:13;;;;;;;2.75;1.20;;;;;;;;;;20915424;28;20045;-56
2022/03/04 22:16:15;;;;;;;2.20;0.93;;;;;;;;;;20914908;28;20071;-58
2022/03/04 22:26:17;;;;;;;1.27;0.60;;;;;;;;;;20930450;28;20063;-56
2022/03/04 22:36:20;;;;;;;3.65;1.20;;;;;;;;;;20914554;28;20489;-58
2022/03/04 22:46:22;;;;;;;2.63;0.80;;;;;;;;;;20913538;28;20045;-55
2022/03/04 22:56:24;;;;;;;1.88;1.08;;;;;;;;;;20913491;28;20053;-59
2022/03/04 23:16:47;;;;;;;1.48;0.80;;;;;;;;;;20910812;28;20052;-56
2022/03/04 23:26:52;;;;;;;1.00;0.63;;;;;;;;;;20912044;28;20045;-57
2022/03/04 23:36:54;;;;;;;1.70;0.70;;;;;;;;;;20911449;28;20182;-58
2022/03/04 23:46:57;;;;;;;1.45;0.80;;;;;;;;;;20927414;28;20083;-58
2022/03/04 23:56:59;;;;;;;1.75;1.00;;;;;;;;;;20926987;28;20053;-58
